createdAt,value
2017-04-26T00:00:32.620Z,68.34
2017-04-26T00:01:13.135Z,68.24
2017-04-26T00:01:53.667Z,67.77
2017-04-26T00:02:34.189Z,68.24
2017-04-26T00:03:14.701Z,67.96
2017-04-26T00:03:55.217Z,67.58
2017-04-26T00:04:35.740Z,67.58
2017-04-26T00:05:16.261Z,67.96
2017-04-26T00:05:56.786Z,68.24
2017-04-26T00:06:37.305Z,68.05
2017-04-26T00:07:17.836Z,67.68
2017-04-26T00:07:58.378Z,67.48
2017-04-26T00:08:38.899Z,67.48
2017-04-26T00:09:19.417Z,67.68
2017-04-26T00:09:59.945Z,67.39
2017-04-26T00:10:40.465Z,67.29
2017-04-26T00:11:20.994Z,67
2017-04-26T00:12:01.511Z,66.82
2017-04-26T00:12:42.026Z,66.44
2017-04-26T00:13:22.549Z,66.15
2017-04-26T00:14:03.064Z,66.82
2017-04-26T00:14:43.611Z,66.34
2017-04-26T00:15:24.113Z,67.39
2017-04-26T00:16:04.631Z,67.2
2017-04-26T00:16:45.149Z,67.1
2017-04-26T00:17:25.685Z,67.2
2017-04-26T00:18:06.204Z,67.58
2017-04-26T00:18:46.729Z,67.58
2017-04-26T00:19:27.248Z,67.39
2017-04-26T00:20:07.761Z,67.48
2017-04-26T00:20:48.273Z,67.48
2017-04-26T00:21:28.799Z,67.48
2017-04-26T00:22:09.322Z,67.39
2017-04-26T00:22:49.858Z,67.58
2017-04-26T00:23:30.380Z,67.48
2017-04-26T00:24:10.895Z,67.68
2017-04-26T00:24:51.424Z,67.29
2017-04-26T00:25:31.967Z,67.39
2017-04-26T00:26:12.482Z,67.29
2017-04-26T00:26:53.003Z,67.16
2017-04-26T00:27:33.523Z,67.26
2017-04-26T00:28:14.043Z,67.74
2017-04-26T00:28:54.556Z,68.3
2017-04-26T00:29:35.078Z,68.78
2017-04-26T00:30:15.599Z,68.98
2017-04-26T00:30:56.127Z,68.69
2017-04-26T00:31:36.646Z,69.07
2017-04-26T00:32:17.156Z,69.07
2017-04-26T00:32:57.674Z,68.98
2017-04-26T00:33:38.192Z,69.17
2017-04-26T00:34:18.709Z,69.07
2017-04-26T00:34:59.227Z,68.88
2017-04-26T00:35:39.743Z,69.07
2017-04-26T00:36:20.257Z,68.98
2017-04-26T00:37:00.776Z,69.07
2017-04-26T00:37:41.294Z,68.98
2017-04-26T00:38:21.833Z,69.93
2017-04-26T00:39:02.353Z,69.17
2017-04-26T00:39:42.877Z,68.98
2017-04-26T00:40:23.391Z,68.4
2017-04-26T00:41:03.912Z,67.83
2017-04-26T00:41:44.443Z,68.59
2017-04-26T00:42:24.957Z,68.5
2017-04-26T00:43:05.465Z,68.78
2017-04-26T00:43:45.996Z,68.21
2017-04-26T00:44:26.525Z,68.4
2017-04-26T00:45:07.050Z,68.5
2017-04-26T00:45:47.604Z,68.12
2017-04-26T00:46:28.110Z,68.59
2017-04-26T00:47:08.633Z,68.4
2017-04-26T00:47:49.145Z,68.88
2017-04-26T00:48:29.659Z,69.17
2017-04-26T00:49:10.188Z,68.98
2017-04-26T00:49:50.702Z,69.54
2017-04-26T00:50:31.223Z,68.98
2017-04-26T00:51:11.747Z,70.02
2017-04-26T00:51:52.263Z,69.54
2017-04-26T00:52:32.774Z,69.74
2017-04-26T00:53:13.312Z,69.35
2017-04-26T00:53:53.832Z,69.54
2017-04-26T00:54:34.355Z,69.54
2017-04-26T00:55:14.874Z,69.35
2017-04-26T00:55:55.411Z,69.58
2017-04-26T00:56:35.973Z,69.2
2017-04-26T00:57:16.461Z,69.26
2017-04-26T00:57:56.976Z,69.83
2017-04-26T00:58:37.497Z,70.4
2017-04-26T00:59:18.013Z,70.59
2017-04-26T00:59:58.570Z,70.31
2017-04-26T01:00:39.103Z,70.5
2017-04-26T01:01:19.622Z,70.21
2017-04-26T01:02:00.137Z,70.78
2017-04-26T01:02:40.651Z,70.31
2017-04-26T01:03:21.163Z,70.31
2017-04-26T01:04:01.679Z,71.07
2017-04-26T01:04:42.201Z,70.69
2017-04-26T01:05:22.719Z,70.88
2017-04-26T01:06:03.245Z,71.36
2017-04-26T01:06:43.761Z,70.4
2017-04-26T01:07:24.287Z,70.31
2017-04-26T01:08:04.807Z,69.93
2017-04-26T01:08:45.330Z,70.4
2017-04-26T01:09:25.856Z,70.31
2017-04-26T01:10:06.373Z,69.74
2017-04-26T01:10:46.904Z,69.74
2017-04-26T01:11:27.428Z,70.02
2017-04-26T01:12:07.945Z,69.07
2017-04-26T01:12:48.467Z,69.35
2017-04-26T01:13:28.981Z,69.83
2017-04-26T01:14:09.501Z,69.93
2017-04-26T01:14:50.027Z,69.74
2017-04-26T01:15:30.557Z,69.45
2017-04-26T01:16:11.078Z,70.31
2017-04-26T01:16:51.591Z,70.31
2017-04-26T01:17:32.103Z,70.78
2017-04-26T01:18:12.624Z,71.13
2017-04-26T01:18:53.146Z,72.27
2017-04-26T01:19:33.654Z,72.17
2017-04-26T01:20:14.173Z,72.37
2017-04-26T01:20:54.694Z,72.46
2017-04-26T01:21:35.219Z,72.56
2017-04-26T01:22:15.761Z,72.56
2017-04-26T01:22:56.274Z,72.6
2017-04-26T01:23:36.796Z,73.22
2017-04-26T01:24:17.312Z,73.22
2017-04-26T01:24:57.827Z,72.94
2017-04-26T01:25:38.347Z,73.17
2017-04-26T01:26:18.866Z,73.07
2017-04-26T01:26:59.387Z,72.6
2017-04-26T01:27:39.902Z,72.31
2017-04-26T01:28:20.417Z,71.73
2017-04-26T01:29:00.929Z,71.17
2017-04-26T01:29:41.445Z,71.55
2017-04-26T01:30:21.954Z,71.36
2017-04-26T01:31:02.473Z,71.26
2017-04-26T01:31:42.994Z,70.97
2017-04-26T01:32:23.505Z,71.07
2017-04-26T01:33:04.031Z,71.07
2017-04-26T01:33:44.562Z,70.69
2017-04-26T01:34:25.081Z,70.5
2017-04-26T01:35:05.596Z,70.12
2017-04-26T01:35:46.120Z,69.35
2017-04-26T01:36:26.637Z,68.88
2017-04-26T01:37:07.149Z,68.88
2017-04-26T01:37:47.674Z,70.02
2017-04-26T01:38:28.192Z,69.26
2017-04-26T01:39:08.716Z,69.26
2017-04-26T01:39:49.230Z,69.35
2017-04-26T01:40:29.755Z,69.26
2017-04-26T01:41:10.269Z,68.98
2017-04-26T01:41:50.795Z,68.88
2017-04-26T01:42:31.319Z,68.78
2017-04-26T01:43:11.832Z,68.98
2017-04-26T01:43:52.348Z,69.17
2017-04-26T01:44:32.862Z,69.07
2017-04-26T01:45:13.424Z,69.74
2017-04-26T01:45:53.940Z,70.4
2017-04-26T01:46:34.474Z,70.31
2017-04-26T01:47:14.984Z,70.69
2017-04-26T01:47:55.501Z,71.07
2017-04-26T01:48:36.019Z,70.97
2017-04-26T01:49:16.548Z,71.17
2017-04-26T01:49:57.067Z,70.97
2017-04-26T01:50:37.577Z,69.64
2017-04-26T01:51:18.097Z,69.26
2017-04-26T01:51:58.610Z,69.54
2017-04-26T01:52:39.143Z,70.4
2017-04-26T01:53:19.662Z,70.69
2017-04-26T01:54:00.188Z,70.31
2017-04-26T01:54:40.710Z,69.83
2017-04-26T01:55:21.234Z,69.64
2017-04-26T01:56:01.757Z,69.64
2017-04-26T01:56:42.281Z,69.26
2017-04-26T01:57:22.804Z,69.35
2017-04-26T01:58:03.320Z,69.35
2017-04-26T01:58:43.837Z,69.74
2017-04-26T01:59:24.355Z,69.45
2017-04-26T02:00:04.878Z,69.83
2017-04-26T02:00:45.395Z,69.07
2017-04-26T02:01:25.914Z,69.83
2017-04-26T02:02:06.439Z,69.74
2017-04-26T02:02:46.957Z,70.21
2017-04-26T02:03:27.474Z,70.59
2017-04-26T02:04:07.991Z,70.02
2017-04-26T02:04:48.507Z,69.83
2017-04-26T02:05:29.010Z,70.4
2017-04-26T02:06:09.563Z,69.93
2017-04-26T02:06:50.019Z,69.54
2017-04-26T02:07:30.538Z,69.45
2017-04-26T02:08:11.055Z,70.02
2017-04-26T02:08:51.579Z,69.83
2017-04-26T02:09:32.098Z,69.64
2017-04-26T02:10:12.614Z,69.35
2017-04-26T02:10:53.135Z,68.98
2017-04-26T02:11:33.644Z,68.21
2017-04-26T02:12:14.185Z,69.26
2017-04-26T02:12:54.687Z,68.59
2017-04-26T02:13:35.211Z,68.98
2017-04-26T02:14:15.731Z,69.35
2017-04-26T02:14:56.248Z,69.17
2017-04-26T02:15:36.770Z,69.83
2017-04-26T02:16:17.288Z,69.35
2017-04-26T02:16:57.804Z,69.17
2017-04-26T02:17:38.317Z,69.07
2017-04-26T02:18:18.836Z,68.5
2017-04-26T02:18:59.356Z,68.88
2017-04-26T02:19:39.874Z,69.93
2017-04-26T02:20:20.420Z,69.35
2017-04-26T02:21:00.937Z,70.02
2017-04-26T02:21:41.460Z,70.21
2017-04-26T02:22:21.975Z,70.59
2017-04-26T02:23:02.483Z,69.74
2017-04-26T02:23:43.008Z,68.78
2017-04-26T02:24:23.522Z,68.78
2017-04-26T02:25:04.046Z,69.07
2017-04-26T02:25:44.570Z,69.45
2017-04-26T02:26:25.088Z,69.45
2017-04-26T02:27:05.612Z,69.83
2017-04-26T02:27:46.144Z,70.4
2017-04-26T02:28:26.666Z,70.31
2017-04-26T02:29:07.183Z,70.21
2017-04-26T02:29:47.704Z,70.59
2017-04-26T02:30:28.219Z,70.31
2017-04-26T02:31:08.749Z,70.5
2017-04-26T02:31:49.262Z,71.07
2017-04-26T02:32:29.776Z,70.75
2017-04-26T02:33:10.298Z,71.26
2017-04-26T02:33:50.822Z,71.07
2017-04-26T02:34:31.329Z,71.07
2017-04-26T02:35:11.861Z,71.83
2017-04-26T02:35:52.375Z,71.07
2017-04-26T02:36:32.892Z,71.17
2017-04-26T02:37:13.400Z,70.5
2017-04-26T02:37:53.915Z,70.88
2017-04-26T02:38:34.429Z,70.88
2017-04-26T02:39:14.953Z,69.93
2017-04-26T02:39:55.469Z,69.23
2017-04-26T02:40:35.992Z,69.54
2017-04-26T02:41:16.512Z,68.98
2017-04-26T02:41:57.035Z,69.07
2017-04-26T02:42:37.555Z,68.98
2017-04-26T02:43:18.080Z,68.88
2017-04-26T02:43:58.599Z,69.04
2017-04-26T02:44:39.129Z,69.7
2017-04-26T02:45:19.647Z,70.27
2017-04-26T02:46:00.175Z,70.37
2017-04-26T02:46:40.693Z,70.84
2017-04-26T02:47:21.211Z,70.47
2017-04-26T02:48:01.743Z,70.75
2017-04-26T02:48:42.266Z,71.51
2017-04-26T02:49:22.783Z,71.7
2017-04-26T02:50:03.295Z,72.27
2017-04-26T02:50:43.815Z,72.65
2017-04-26T02:51:24.334Z,72.46
2017-04-26T02:52:04.850Z,72.17
2017-04-26T02:52:45.370Z,72.17
2017-04-26T02:53:25.892Z,72.27
2017-04-26T02:54:06.413Z,72.94
2017-04-26T02:54:46.929Z,72.27
2017-04-26T02:55:27.439Z,71.22
2017-04-26T02:56:07.967Z,72.27
2017-04-26T02:56:48.503Z,72.17
2017-04-26T02:57:29.019Z,72.27
2017-04-26T02:58:09.540Z,71.89
2017-04-26T02:58:50.071Z,72.08
2017-04-26T02:59:30.588Z,72.65
2017-04-26T03:00:11.109Z,73.03
2017-04-26T03:00:51.630Z,72.37
2017-04-26T03:01:32.147Z,73.22
2017-04-26T03:02:12.670Z,73.61
2017-04-26T03:02:53.185Z,73.41
2017-04-26T03:03:33.702Z,73.13
2017-04-26T03:04:14.240Z,73.32
2017-04-26T03:04:54.757Z,73.41
2017-04-26T03:05:35.270Z,73.8
2017-04-26T03:06:15.784Z,73.7
2017-04-26T03:06:56.302Z,73.13
2017-04-26T03:07:36.823Z,72.56
2017-04-26T03:08:17.337Z,72.52
2017-04-26T03:08:57.854Z,72.42
2017-04-26T03:09:38.378Z,72.9
2017-04-26T03:10:18.909Z,73.66
2017-04-26T03:10:59.441Z,73.38
2017-04-26T03:11:39.967Z,73.38
2017-04-26T03:12:20.481Z,72.71
2017-04-26T03:13:01.000Z,73.47
2017-04-26T03:13:41.512Z,72.81
2017-04-26T03:14:22.039Z,73.19
2017-04-26T03:15:02.558Z,72.71
2017-04-26T03:15:43.078Z,73
2017-04-26T03:16:23.596Z,73.57
2017-04-26T03:17:04.112Z,73.7
2017-04-26T03:17:44.612Z,73.32
2017-04-26T03:18:25.135Z,73.22
2017-04-26T03:19:05.646Z,72.94
2017-04-26T03:19:46.174Z,73.19
2017-04-26T03:20:26.693Z,72.42
2017-04-26T03:21:07.207Z,72.33
2017-04-26T03:21:47.732Z,72.52
2017-04-26T03:22:28.252Z,72.46
2017-04-26T03:23:08.768Z,71.7
2017-04-26T03:23:49.309Z,72.08
2017-04-26T03:24:29.835Z,72.08
2017-04-26T03:25:10.352Z,72.52
2017-04-26T03:25:50.867Z,72.52
2017-04-26T03:26:31.382Z,72.46
2017-04-26T03:27:11.900Z,72.46
2017-04-26T03:27:52.423Z,72.08
2017-04-26T03:28:32.957Z,71.76
2017-04-26T03:29:13.464Z,72.24
2017-04-26T03:29:53.977Z,72.24
2017-04-26T03:30:34.513Z,72.33
2017-04-26T03:31:15.042Z,72.14
2017-04-26T03:31:55.552Z,71.28
2017-04-26T03:32:36.117Z,71.89
2017-04-26T03:33:16.645Z,71.8
2017-04-26T03:33:57.172Z,71.8
2017-04-26T03:34:37.686Z,72.27
2017-04-26T03:35:18.205Z,72.08
2017-04-26T03:35:58.725Z,72.17
2017-04-26T03:36:39.282Z,71.89
2017-04-26T03:37:19.784Z,72.46
2017-04-26T03:38:00.296Z,71.98
2017-04-26T03:38:40.817Z,72.85
2017-04-26T03:39:21.344Z,72.56
2017-04-26T03:40:01.871Z,72.37
2017-04-26T03:40:42.381Z,72.27
2017-04-26T03:41:22.906Z,73.03
2017-04-26T03:42:03.439Z,72.56
2017-04-26T03:42:43.961Z,72.94
2017-04-26T03:43:24.477Z,72.17
2017-04-26T03:44:04.981Z,72.65
2017-04-26T03:44:45.517Z,72.56
2017-04-26T03:45:26.023Z,71.98
2017-04-26T03:46:06.561Z,71.61
2017-04-26T03:46:47.078Z,71.8
2017-04-26T03:47:27.605Z,71.61
2017-04-26T03:48:08.122Z,70.94
2017-04-26T03:48:48.639Z,71.13
2017-04-26T03:49:29.155Z,71.13
2017-04-26T03:50:09.681Z,71.13
2017-04-26T03:50:50.197Z,70.56
2017-04-26T03:51:30.722Z,70.56
2017-04-26T03:52:11.253Z,70.56
2017-04-26T03:52:51.761Z,70.47
2017-04-26T03:53:32.273Z,70.47
2017-04-26T03:54:12.796Z,69.67
2017-04-26T03:54:53.313Z,70.43
2017-04-26T03:55:33.831Z,70.75
2017-04-26T03:56:14.350Z,70.94
2017-04-26T03:56:54.873Z,70.81
2017-04-26T03:57:35.397Z,70.47
2017-04-26T03:58:15.918Z,70.75
2017-04-26T03:58:56.451Z,69.32
2017-04-26T03:59:36.956Z,69.99
2017-04-26T04:00:17.496Z,70.56
2017-04-26T04:00:58.042Z,70.65
2017-04-26T04:01:38.557Z,70.56
2017-04-26T04:02:19.084Z,70.18
2017-04-26T04:02:59.603Z,70.27
2017-04-26T04:03:40.124Z,70.37
2017-04-26T04:04:20.645Z,70.47
2017-04-26T04:05:01.147Z,70.37
2017-04-26T04:05:41.669Z,70.94
2017-04-26T04:06:22.191Z,71.7
2017-04-26T04:07:02.712Z,71.8
2017-04-26T04:07:43.225Z,71.8
2017-04-26T04:08:23.745Z,71.32
2017-04-26T04:09:04.260Z,70.18
2017-04-26T04:09:44.778Z,69.51
2017-04-26T04:10:25.293Z,68.84
2017-04-26T04:11:05.803Z,69.04
2017-04-26T04:11:46.325Z,69.7
2017-04-26T04:12:26.842Z,70.37
2017-04-26T04:13:07.363Z,70.65
2017-04-26T04:13:47.890Z,70.37
2017-04-26T04:14:28.419Z,70.27
2017-04-26T04:15:08.949Z,70.56
2017-04-26T04:15:49.467Z,71.7
2017-04-26T04:16:29.991Z,71.03
2017-04-26T04:17:10.516Z,69.89
2017-04-26T04:17:51.041Z,69.51
2017-04-26T04:18:31.565Z,68.75
2017-04-26T04:19:12.099Z,68.27
2017-04-26T04:19:52.622Z,68.08
2017-04-26T04:20:33.136Z,68.65
2017-04-26T04:21:13.667Z,68.46
2017-04-26T04:21:54.194Z,67.7
2017-04-26T04:22:34.710Z,68.75
2017-04-26T04:23:15.234Z,67.7
2017-04-26T04:23:55.760Z,68.18
2017-04-26T04:24:36.272Z,69.04
2017-04-26T04:25:16.794Z,68.27
2017-04-26T04:25:57.308Z,68.75
2017-04-26T04:26:37.818Z,69.13
2017-04-26T04:27:18.331Z,69.6
2017-04-26T04:27:58.852Z,69.99
2017-04-26T04:28:39.380Z,70.37
2017-04-26T04:29:19.892Z,70.27
2017-04-26T04:30:00.418Z,69.42
2017-04-26T04:30:40.938Z,68.94
2017-04-26T04:31:21.454Z,69.04
2017-04-26T04:32:01.976Z,68.46
2017-04-26T04:32:42.501Z,68.84
2017-04-26T04:33:23.017Z,69.04
2017-04-26T04:34:03.537Z,69.13
2017-04-26T04:34:44.044Z,69.32
2017-04-26T04:35:24.554Z,69.6
2017-04-26T04:36:05.072Z,70.18
2017-04-26T04:36:45.598Z,70.56
2017-04-26T04:37:26.120Z,71.89
2017-04-26T04:38:06.631Z,72.08
2017-04-26T04:38:47.150Z,72.37
2017-04-26T04:39:27.745Z,72.65
2017-04-26T04:40:08.261Z,72.27
2017-04-26T04:40:48.773Z,72.56
2017-04-26T04:41:29.294Z,72.27
2017-04-26T04:42:09.810Z,72.27
2017-04-26T04:42:50.318Z,72.46
2017-04-26T04:43:30.840Z,72.56
2017-04-26T04:44:11.366Z,73.03
2017-04-26T04:44:51.881Z,73.32
2017-04-26T04:45:32.408Z,73.13
2017-04-26T04:46:12.925Z,73.03
2017-04-26T04:46:53.433Z,72.94
2017-04-26T04:47:33.946Z,73.03
2017-04-26T04:48:14.454Z,72.94
2017-04-26T04:48:54.990Z,72.94
2017-04-26T04:49:35.503Z,73.41
2017-04-26T04:50:16.012Z,72.94
2017-04-26T04:50:56.529Z,73.51
2017-04-26T04:51:37.045Z,73.51
2017-04-26T04:52:17.559Z,73.61
2017-04-26T04:52:58.076Z,73.51
2017-04-26T04:53:38.606Z,73.22
2017-04-26T04:54:19.129Z,72.85
2017-04-26T04:54:59.646Z,73.13
2017-04-26T04:55:40.159Z,73.32
2017-04-26T04:56:20.699Z,73.13
2017-04-26T04:57:01.209Z,73.99
2017-04-26T04:57:41.728Z,73.8
2017-04-26T04:58:22.258Z,74.08
2017-04-26T04:59:02.796Z,73.7
2017-04-26T04:59:43.325Z,72.94
2017-04-26T05:00:23.847Z,72.75
2017-04-26T05:01:04.363Z,73.41
2017-04-26T05:01:44.885Z,73.32
2017-04-26T05:02:25.387Z,73.22
2017-04-26T05:03:05.904Z,73.22
2017-04-26T05:03:46.422Z,72.56
2017-04-26T05:04:26.937Z,72.37
2017-04-26T05:05:07.457Z,73.13
2017-04-26T05:05:48.045Z,73.22
2017-04-26T05:06:28.486Z,73.32
2017-04-26T05:07:09.018Z,73.13
2017-04-26T05:07:49.537Z,72.94
2017-04-26T05:08:30.066Z,73.13
2017-04-26T05:09:10.591Z,72.56
2017-04-26T05:09:51.121Z,72.46
2017-04-26T05:10:31.648Z,72.46
2017-04-26T05:11:12.257Z,73.13
2017-04-26T05:11:52.768Z,73.7
2017-04-26T05:12:33.280Z,73.51
2017-04-26T05:13:13.791Z,73.41
2017-04-26T05:13:54.319Z,73.13
2017-04-26T05:14:34.895Z,73.03
2017-04-26T05:15:15.418Z,72.56
2017-04-26T05:15:55.945Z,71.98
2017-04-26T05:16:36.452Z,72.08
2017-04-26T05:17:16.967Z,72.37
2017-04-26T05:17:57.489Z,72.75
2017-04-26T05:18:38.010Z,72.56
2017-04-26T05:19:18.526Z,72.46
2017-04-26T05:19:59.059Z,71.89
2017-04-26T05:20:39.560Z,72.08
2017-04-26T05:21:20.078Z,71.22
2017-04-26T05:22:00.595Z,71.98
2017-04-26T05:22:41.124Z,72.75
2017-04-26T05:23:21.653Z,73.03
2017-04-26T05:24:02.168Z,73.8
2017-04-26T05:24:42.680Z,73.41
2017-04-26T05:25:23.211Z,73.74
2017-04-26T05:26:03.724Z,73.93
2017-04-26T05:26:44.242Z,73.74
2017-04-26T05:27:24.759Z,74.31
2017-04-26T05:28:05.285Z,74.21
2017-04-26T05:28:45.850Z,74.69
2017-04-26T05:29:26.327Z,74.5
2017-04-26T05:30:06.840Z,74.5
2017-04-26T05:30:47.346Z,74.02
2017-04-26T05:31:27.870Z,74.5
2017-04-26T05:32:08.391Z,74.21
2017-04-26T05:32:48.910Z,74.79
2017-04-26T05:33:29.486Z,74.31
2017-04-26T05:34:09.960Z,74.98
2017-04-26T05:34:50.469Z,74.4
2017-04-26T05:35:30.993Z,74.6
2017-04-26T05:36:12.137Z,74.4
2017-04-26T05:36:52.628Z,74.6
2017-04-26T05:37:33.122Z,74.6
2017-04-26T05:38:13.636Z,74.4
2017-04-26T05:38:54.168Z,74.4
2017-04-26T05:39:34.697Z,74.92
2017-04-26T05:40:15.224Z,74.54
2017-04-26T05:40:55.756Z,74.25
2017-04-26T05:41:36.269Z,73.58
2017-04-26T05:42:16.823Z,73.87
2017-04-26T05:42:57.308Z,73.87
2017-04-26T05:43:37.819Z,73.39
2017-04-26T05:44:18.352Z,73.96
2017-04-26T05:44:58.870Z,73.87
2017-04-26T05:45:39.387Z,73.39
2017-04-26T05:46:19.945Z,73.21
2017-04-26T05:47:00.465Z,73.49
2017-04-26T05:47:40.990Z,73.11
2017-04-26T05:48:21.501Z,71.48
2017-04-26T05:49:02.073Z,71.04
2017-04-26T05:49:42.544Z,70.57
2017-04-26T05:50:23.064Z,70.67
2017-04-26T05:51:03.594Z,70
2017-04-26T05:51:44.121Z,69.81
2017-04-26T05:52:24.651Z,69.9
2017-04-26T05:53:05.167Z,69.23
2017-04-26T05:53:45.680Z,69.62
2017-04-26T05:54:26.201Z,70
2017-04-26T05:55:06.718Z,70.57
2017-04-26T05:55:47.233Z,70.67
2017-04-26T05:56:27.759Z,70
2017-04-26T05:57:08.265Z,69.81
2017-04-26T05:57:48.776Z,69.71
2017-04-26T05:58:29.297Z,70.47
2017-04-26T05:59:09.819Z,69.81
2017-04-26T05:59:50.336Z,69.23
2017-04-26T06:00:30.855Z,69.33
2017-04-26T06:01:11.365Z,68.76
2017-04-26T06:01:51.946Z,69.81
2017-04-26T06:02:32.789Z,70.09
2017-04-26T06:03:13.259Z,70.67
2017-04-26T06:03:53.895Z,70.28
2017-04-26T06:04:34.396Z,70.28
2017-04-26T06:05:14.941Z,70.38
2017-04-26T06:05:55.457Z,70.57
2017-04-26T06:06:35.983Z,70.67
2017-04-26T06:07:16.506Z,70
2017-04-26T06:07:57.033Z,70.38
2017-04-26T06:08:37.549Z,70
2017-04-26T06:09:18.070Z,70.57
2017-04-26T06:09:58.592Z,71.14
2017-04-26T06:10:39.116Z,71.81
2017-04-26T06:11:19.629Z,76.9
2017-04-26T06:12:00.176Z,86.63
2017-04-26T06:12:40.686Z,91.12
2017-04-26T06:13:21.211Z,93.12
2017-04-26T06:14:01.731Z,90.26
2017-04-26T06:14:42.247Z,90.26
2017-04-26T06:15:22.765Z,89.73
2017-04-26T06:16:03.291Z,89.12
2017-04-26T06:16:43.816Z,86.92
2017-04-26T06:17:24.336Z,88.49
2017-04-26T06:18:04.850Z,87.15
2017-04-26T06:18:45.375Z,81.38
2017-04-26T06:19:25.893Z,85.68
2017-04-26T06:20:06.405Z,90.21
2017-04-26T06:20:46.929Z,91.74
2017-04-26T06:21:27.450Z,89.45
2017-04-26T06:22:07.975Z,79.38
2017-04-26T06:22:48.531Z,75.47
2017-04-26T06:23:29.868Z,74.29
2017-04-26T06:24:10.253Z,74.32
2017-04-26T06:24:50.781Z,73.56
2017-04-26T06:25:31.302Z,72
2017-04-26T06:26:11.820Z,73.91
2017-04-26T06:26:52.353Z,83.87
2017-04-26T06:27:32.910Z,89.02
2017-04-26T06:28:13.442Z,92.17
2017-04-26T06:28:53.972Z,92.31
2017-04-26T06:29:34.486Z,91.31
2017-04-26T06:30:14.996Z,92.5
2017-04-26T06:30:55.525Z,90.4
2017-04-26T06:31:36.052Z,90.78
2017-04-26T06:32:16.584Z,84.44
2017-04-26T06:32:57.108Z,85.01
2017-04-26T06:33:37.627Z,86.68
2017-04-26T06:34:18.235Z,90.4
2017-04-26T06:34:58.768Z,91.83
2017-04-26T06:35:39.282Z,90.5
2017-04-26T06:36:19.893Z,91.07
2017-04-26T06:37:00.280Z,88.16
2017-04-26T06:37:40.810Z,88.35
2017-04-26T06:38:21.332Z,91.16
2017-04-26T06:39:01.853Z,90.5
2017-04-26T06:39:42.377Z,88.59
2017-04-26T06:40:22.905Z,83.87
2017-04-26T06:41:03.422Z,77.57
2017-04-26T06:41:43.944Z,74.52
2017-04-26T06:42:24.472Z,73.56
2017-04-26T06:43:04.994Z,72.8
2017-04-26T06:43:45.517Z,72.13
2017-04-26T06:44:26.038Z,71.37
2017-04-26T06:45:06.548Z,72.61
2017-04-26T06:45:47.066Z,72.71
2017-04-26T06:46:27.580Z,71.94
2017-04-26T06:47:08.099Z,72.03
2017-04-26T06:47:48.610Z,70.98
2017-04-26T06:48:29.134Z,71.08
2017-04-26T06:49:09.636Z,71.46
2017-04-26T06:49:50.183Z,72.03
2017-04-26T06:50:30.708Z,72.8
2017-04-26T06:51:11.271Z,72.8
2017-04-26T06:51:51.763Z,72.42
2017-04-26T06:52:32.279Z,71.41
2017-04-26T06:53:12.790Z,71.56
2017-04-26T06:53:53.324Z,71.31
2017-04-26T06:54:33.834Z,75.18
2017-04-26T06:55:14.340Z,80.33
2017-04-26T06:55:54.862Z,80.81
2017-04-26T06:56:35.399Z,80.53
2017-04-26T06:57:15.917Z,80.15
2017-04-26T06:57:56.453Z,79.77
2017-04-26T06:58:36.976Z,79.19
2017-04-26T06:59:17.507Z,81.48
2017-04-26T06:59:58.038Z,80.81
2017-04-26T07:00:38.635Z,76.23
2017-04-26T07:01:19.262Z,74.13
2017-04-26T07:01:59.663Z,73.37
2017-04-26T07:02:40.176Z,72.42
2017-04-26T07:03:20.704Z,69.84
2017-04-26T07:04:01.216Z,70.42
2017-04-26T07:04:41.730Z,70.22
2017-04-26T07:05:22.250Z,69.31
2017-04-26T07:06:02.778Z,69.49
2017-04-26T07:06:43.287Z,68.06
2017-04-26T07:07:23.801Z,67.87
2017-04-26T07:08:04.329Z,69.11
2017-04-26T07:08:44.859Z,70.45
2017-04-26T07:09:25.396Z,69.59
2017-04-26T07:10:05.929Z,67.71
2017-04-26T07:10:46.469Z,67.43
2017-04-26T07:11:26.964Z,69.02
2017-04-26T07:12:07.479Z,68.35
2017-04-26T07:12:47.991Z,69.02
2017-04-26T07:13:28.513Z,69.02
2017-04-26T07:14:09.030Z,69.05
2017-04-26T07:14:49.552Z,69.91
2017-04-26T07:15:30.074Z,66.56
2017-04-26T07:16:10.592Z,67.33
2017-04-26T07:16:51.110Z,67.62
2017-04-26T07:17:31.657Z,75.64
2017-04-26T07:18:12.131Z,82.42
2017-04-26T07:18:52.656Z,84.43
2017-04-26T07:19:33.179Z,83.38
2017-04-26T07:20:13.720Z,85.86
2017-04-26T07:20:54.238Z,84.14
2017-04-26T07:21:34.758Z,80.41
2017-04-26T07:22:15.287Z,75.16
2017-04-26T07:22:55.805Z,71.15
2017-04-26T07:23:36.327Z,68.29
2017-04-26T07:24:16.879Z,67.55
2017-04-26T07:24:57.395Z,67.46
2017-04-26T07:25:37.925Z,66.13
2017-04-26T07:26:18.432Z,61.54
2017-04-26T07:26:58.960Z,60.3
2017-04-26T07:27:39.476Z,61.06
2017-04-26T07:28:20.010Z,62.78
2017-04-26T07:29:00.580Z,62.4
2017-04-26T07:29:41.098Z,63.93
2017-04-26T07:30:21.613Z,59.91
2017-04-26T07:31:02.130Z,58.67
2017-04-26T07:31:42.661Z,62.4
2017-04-26T07:32:23.177Z,62.59
2017-04-26T07:33:03.700Z,73.61
2017-04-26T07:33:44.246Z,66.06
2017-04-26T07:34:24.788Z,61.63
2017-04-26T07:35:05.317Z,59.63
2017-04-26T07:35:45.865Z,60.1
2017-04-26T07:36:27.243Z,60.68
2017-04-26T07:37:06.907Z,60.3
2017-04-26T07:37:47.424Z,61.92
2017-04-26T07:38:27.942Z,62.43
2017-04-26T07:39:08.459Z,63
2017-04-26T07:39:48.985Z,63.96
2017-04-26T07:40:29.504Z,63.96
2017-04-26T07:41:10.020Z,63
2017-04-26T07:41:50.593Z,62.74
2017-04-26T07:42:31.141Z,60.83
2017-04-26T07:43:11.657Z,58.44
2017-04-26T07:43:52.172Z,57.87
2017-04-26T07:44:32.699Z,57.13
2017-04-26T07:45:13.216Z,57.32
2017-04-26T07:45:53.738Z,56.46
2017-04-26T07:46:34.257Z,55.6
2017-04-26T07:47:14.774Z,56.08
2017-04-26T07:47:55.302Z,55.51
2017-04-26T07:48:35.821Z,54.07
2017-04-26T07:49:16.532Z,53.97
2017-04-26T07:49:57.113Z,54.36
2017-04-26T07:50:37.637Z,55.12
2017-04-26T07:51:18.151Z,58.56
2017-04-26T07:51:58.670Z,62.11
2017-04-26T07:52:39.214Z,63.13
2017-04-26T07:53:19.762Z,60.26
2017-04-26T07:54:00.303Z,59.33
2017-04-26T07:54:40.822Z,60.83
2017-04-26T07:55:21.369Z,63.23
2017-04-26T07:56:01.861Z,59.4
2017-04-26T07:56:42.389Z,56.15
2017-04-26T07:57:22.913Z,56.31
2017-04-26T07:58:03.441Z,57.26
2017-04-26T07:58:43.953Z,57.46
2017-04-26T07:59:24.474Z,57.17
2017-04-26T08:00:05.008Z,56.98
2017-04-26T08:00:45.538Z,57.36
2017-04-26T08:01:26.055Z,55.93
2017-04-26T08:02:06.571Z,56.02
2017-04-26T08:02:47.126Z,56.12
2017-04-26T08:03:27.658Z,55.99
2017-04-26T08:04:08.256Z,55.87
2017-04-26T08:04:48.757Z,57.4
2017-04-26T08:05:29.274Z,57.78
2017-04-26T08:06:09.805Z,58.83
2017-04-26T08:06:50.349Z,58.93
2017-04-26T08:07:30.873Z,60.07
2017-04-26T08:08:11.385Z,59.59
2017-04-26T08:08:51.914Z,58.93
2017-04-26T08:09:32.427Z,59.02
2017-04-26T08:10:12.954Z,58.93
2017-04-26T08:10:53.470Z,58.93
2017-04-26T08:11:34.002Z,60.74
2017-04-26T08:12:14.508Z,62.21
2017-04-26T08:12:55.033Z,61.63
2017-04-26T08:13:35.556Z,58.64
2017-04-26T08:14:16.091Z,62.65
2017-04-26T08:14:56.622Z,76.4
2017-04-26T08:15:37.141Z,77.74
2017-04-26T08:16:17.663Z,74.02
2017-04-26T08:16:58.184Z,72.97
2017-04-26T08:17:38.735Z,78.79
2017-04-26T08:18:19.202Z,78.79
2017-04-26T08:18:59.725Z,72.58
2017-04-26T08:19:40.246Z,71.82
2017-04-26T08:20:20.772Z,74.05
2017-04-26T08:21:01.301Z,68.96
2017-04-26T08:21:41.839Z,63.51
2017-04-26T08:22:22.372Z,62.18
2017-04-26T08:23:02.895Z,61.32
2017-04-26T08:23:43.416Z,60.36
2017-04-26T08:24:23.934Z,60.77
2017-04-26T08:25:04.455Z,60.01
2017-04-26T08:25:44.972Z,60.39
2017-04-26T08:26:25.509Z,58.83
2017-04-26T08:27:06.026Z,58.45
2017-04-26T08:27:46.541Z,60.17
2017-04-26T08:28:27.069Z,61.22
2017-04-26T08:29:07.589Z,59.19
2017-04-26T08:29:48.112Z,60.64
2017-04-26T08:30:28.634Z,59.88
2017-04-26T08:31:09.151Z,60.74
2017-04-26T08:31:49.686Z,61.41
2017-04-26T08:32:30.213Z,61.32
2017-04-26T08:33:10.733Z,59.88
2017-04-26T08:33:51.255Z,60.93
2017-04-26T08:34:31.768Z,59.5
2017-04-26T08:35:12.283Z,59.22
2017-04-26T08:35:52.806Z,59.31
2017-04-26T08:36:33.325Z,59.98
2017-04-26T08:37:13.840Z,62.55
2017-04-26T08:37:54.352Z,66.09
2017-04-26T08:38:34.862Z,67.75
2017-04-26T08:39:15.373Z,73.58
2017-04-26T08:39:55.904Z,78.93
2017-04-26T08:40:36.424Z,78.89
2017-04-26T08:42:34.621Z,67.52
2017-04-26T08:43:15.147Z,76.73
2017-04-26T08:45:14.356Z,62.75
2017-04-26T08:45:54.881Z,61.41
2017-04-26T08:46:35.415Z,61.22
2017-04-26T08:47:15.953Z,60.36